Flight Track Log - Related Links

Times and Time Zones

All times are in EDT time to prevent confusion due to time zone crossing. See the N351CG flight status page for this flight to view local times or setup timezone preferences in your user account.

Time Position Orientation Groundspeed Altitude Reporting Facility
EDT Latitude Longitude Course Direction KTS MPH feet Rate Location/Type
Tue 03:41:12 PM 44.9833 -92.9833 13° North 246 283 4,800  Level Minneapolis TRACON
Tue 03:42:23 PM 45.0800 -92.9906 357° North 263 303 8,900 3,699 Climbing Minneapolis Center
Tue 03:43:25 PM 45.1617 -92.9875 North 292 336 13,000 3,968 Climbing Minneapolis Center
Tue 03:44:27 PM 45.2411 -92.9806 North 287 330 17,100 3,726 Climbing Minneapolis Center
Tue 03:45:29 PM 45.3211 -92.9758 North 288 331 20,700 3,435 Climbing Minneapolis Center
Tue 03:46:31 PM 45.4072 -92.9694 North 301 346 24,200 3,309 Climbing Minneapolis Center
Tue 03:47:45 PM 45.5133 -92.9572 North 317 365 28,200 3,221 Climbing Minneapolis Center
Tue 03:48:47 PM 45.6139 -92.8969 23° Northeast 327 376 31,500 2,661 Climbing Minneapolis Center
Tue 03:49:49 PM 45.6997 -92.8475 22° Northeast 331 381 33,700 1,951 Climbing Minneapolis Center
Tue 03:50:50 PM 45.7911 -92.7947 22° Northeast 347 399 35,500 1,610 Climbing Minneapolis Center
Tue 03:51:52 PM 45.8889 -92.7386 22° Northeast 369 425 37,000 1,452 Climbing Minneapolis Center
Tue 03:52:54 PM 45.9892 -92.6825 21° North 382 440 38,500 1,452 Climbing Minneapolis Center
Tue 03:53:56 PM 46.0903 -92.6225 22° Northeast 391 450 40,000 1,210 Climbing Minneapolis Center
Tue 03:54:58 PM 46.2147 -92.5503 22° Northeast 401 461 41,000 484 Climbing Minneapolis Center
Tue 03:56:00 PM 46.3058 -92.4972 22° Northeast 411 473 41,000  Level Minneapolis Center
Tue 03:57:01 PM 46.4158 -92.5336 347° North 415 478 41,000  Level Minneapolis Center
Tue 03:58:03 PM 46.4375 -92.7272 279° West 416 479 41,000  Level Minneapolis Center
Tue 03:59:05 PM 46.4275 -92.8914 265° West 412 474 41,000  Level Minneapolis Center
Tue 04:00:07 PM 46.4161 -93.0544 264° West 408 470 41,000 -339 Level Minneapolis Center
Tue 04:01:09 PM 46.4056 -93.2172 265° West 406 467 40,300 -1,500 Descending Minneapolis Center
Tue 04:02:11 PM 46.3944 -93.3811 264° West 407 468 37,900 -2,439 Descending Minneapolis Center
Tue 04:03:12 PM 46.3833 -93.5422 264° West 405 466 35,300 -2,683 Descending Minneapolis Center
Tue 04:04:14 PM 46.3714 -93.7025 264° West 402 463 32,400 -3,000 Descending Minneapolis Center
Tue 04:05:16 PM 46.3222 -93.8683 247° West 382 440 29,100 -2,855 Descending Minneapolis Center
Tue 04:06:18 PM 46.2311 -93.9331 206° Southwest 373 429 26,500 -2,613 Descending Minneapolis Center
Tue 04:07:20 PM 46.1200 -93.9017 169° South 372 428 23,700 -2,613 Descending Minneapolis Center
Tue 04:08:22 PM 46.0247 -93.8500 159° South 367 422 21,100 -2,468 Descending Minneapolis Center
Tue 04:09:24 PM 45.9289 -93.7992 160° South 369 425 18,600 -2,419 Descending Minneapolis Center
Tue 04:10:26 PM 45.8350 -93.7464 159° South 365 420 16,100 -2,371 Descending Minneapolis Center
Tue 04:11:28 PM 45.7422 -93.6947 159° South 357 411 13,700 -2,341 Descending Minneapolis Center
Tue 04:12:29 PM 45.6569 -93.6478 159° South 330 380 11,300 -2,293 Descending Minneapolis Center
Tue 04:13:31 PM 45.5694 -93.6003 159° South 281 323 9,000 -1,597 Descending Minneapolis Center
Tue 04:14:33 PM 45.5019 -93.5642 159° South 259 298 8,000 -1,016 Descending Minneapolis Center
Tue 04:15:35 PM 45.4367 -93.5172 153° Southeast 264 304 6,900 -1,403 Descending Minneapolis Center
Tue 04:16:37 PM 45.3775 -93.4617 147° Southeast 256 295 5,100 -919 Descending Minneapolis Center
Tue 04:17:39 PM 45.3183 -93.4072 147° Southeast 254 292 5,000 -48 Descending Minneapolis Center
Tue 04:18:41 PM 45.2644 -93.3578 147° Southeast 236 272 5,000 -339 Level Minneapolis Center
Tue 04:19:43 PM 45.1953 -93.2956 148° Southeast 245 282 4,300 -484 Descending Minneapolis Center
Tue 04:20:45 PM 45.1389 -93.2442 147° Southeast 242 278 4,000 -387 Descending Minneapolis Center
Tue 04:21:47 PM 45.0844 -93.1947 147° Southeast 234 269 3,500 -532 Descending Minneapolis Center
Tue 04:22:49 PM 45.0336 -93.1486 147° Southeast 220 253 2,900 -726 Descending Minneapolis Center
Tue 04:23:51 PM 44.9833 -93.1064 149° Southeast 209 241 2,000 -864 Descending Minneapolis Center
Tue 04:24:54 PM 44.9492 -93.0764 148° Southeast 144 166 1,100 -857 Descending Minneapolis Center
Tue 04:26:00 PM 44.9333 -93.0500 90° East  Level FlightAware Approximate
Tue 04:33:00 PM 44.9346 -93.0603 90° East  Level Estimated
Tue 04:34:00 PM 44.9346 -93.0603 90° East  Level Estimated

Login

Don't have an account? Register now (free) for customized features, flight alerts, and more!